sensor_id;sensor_type;location;lat;lon;timestamp;P1;durP1;ratioP1;P2;durP2;ratioP2
16766;SDS011;8501;49.926;8.404;2023-01-28T00:00:30;6.33;;;4.07;;
16766;SDS011;8501;49.926;8.404;2023-01-28T00:02:55;7.30;;;4.57;;
16766;SDS011;8501;49.926;8.404;2023-01-28T00:05:21;6.07;;;4.23;;
16766;SDS011;8501;49.926;8.404;2023-01-28T00:07:49;5.40;;;4.10;;
16766;SDS011;8501;49.926;8.404;2023-01-28T00:10:15;6.00;;;4.07;;
16766;SDS011;8501;49.926;8.404;2023-01-28T00:12:41;5.50;;;4.03;;
16766;SDS011;8501;49.926;8.404;2023-01-28T00:15:07;6.67;;;4.00;;
16766;SDS011;8501;49.926;8.404;2023-01-28T00:17:33;6.00;;;3.43;;
16766;SDS011;8501;49.926;8.404;2023-01-28T00:20:00;5.97;;;3.90;;
16766;SDS011;8501;49.926;8.404;2023-01-28T00:22:27;5.83;;;3.93;;
16766;SDS011;8501;49.926;8.404;2023-01-28T00:24:52;4.87;;;3.47;;
16766;SDS011;8501;49.926;8.404;2023-01-28T00:27:18;6.07;;;3.63;;
16766;SDS011;8501;49.926;8.404;2023-01-28T00:29:43;4.83;;;3.40;;
16766;SDS011;8501;49.926;8.404;2023-01-28T00:32:09;4.57;;;3.40;;
16766;SDS011;8501;49.926;8.404;2023-01-28T00:34:34;6.13;;;3.30;;
16766;SDS011;8501;49.926;8.404;2023-01-28T00:37:00;6.67;;;3.70;;
16766;SDS011;8501;49.926;8.404;2023-01-28T00:39:26;6.23;;;4.10;;
16766;SDS011;8501;49.926;8.404;2023-01-28T00:41:52;4.93;;;3.57;;
16766;SDS011;8501;49.926;8.404;2023-01-28T00:44:18;5.77;;;3.63;;
16766;SDS011;8501;49.926;8.404;2023-01-28T00:46:44;6.07;;;3.53;;
16766;SDS011;8501;49.926;8.404;2023-01-28T00:49:10;6.20;;;3.90;;
16766;SDS011;8501;49.926;8.404;2023-01-28T00:51:36;5.07;;;3.70;;
16766;SDS011;8501;49.926;8.404;2023-01-28T00:54:02;4.63;;;3.43;;
16766;SDS011;8501;49.926;8.404;2023-01-28T00:56:27;5.57;;;3.93;;
16766;SDS011;8501;49.926;8.404;2023-01-28T00:58:53;5.47;;;3.73;;
16766;SDS011;8501;49.926;8.404;2023-01-28T01:01:20;6.43;;;3.93;;
16766;SDS011;8501;49.926;8.404;2023-01-28T01:03:48;5.20;;;3.67;;
16766;SDS011;8501;49.926;8.404;2023-01-28T01:06:21;7.07;;;3.93;;
16766;SDS011;8501;49.926;8.404;2023-01-28T01:08:48;5.57;;;3.67;;
16766;SDS011;8501;49.926;8.404;2023-01-28T01:11:15;6.37;;;3.80;;
16766;SDS011;8501;49.926;8.404;2023-01-28T01:13:41;4.40;;;3.40;;
16766;SDS011;8501;49.926;8.404;2023-01-28T01:16:07;5.13;;;3.60;;
16766;SDS011;8501;49.926;8.404;2023-01-28T01:18:35;6.27;;;3.77;;
16766;SDS011;8501;49.926;8.404;2023-01-28T01:21:01;5.57;;;3.50;;
16766;SDS011;8501;49.926;8.404;2023-01-28T01:23:28;6.07;;;3.93;;
16766;SDS011;8501;49.926;8.404;2023-01-28T01:25:54;5.57;;;3.93;;
16766;SDS011;8501;49.926;8.404;2023-01-28T01:28:20;5.87;;;3.77;;
16766;SDS011;8501;49.926;8.404;2023-01-28T01:30:49;6.80;;;3.97;;
16766;SDS011;8501;49.926;8.404;2023-01-28T01:33:15;5.97;;;4.30;;
16766;SDS011;8501;49.926;8.404;2023-01-28T01:35:41;6.23;;;3.90;;
16766;SDS011;8501;49.926;8.404;2023-01-28T01:38:06;5.93;;;4.10;;
16766;SDS011;8501;49.926;8.404;2023-01-28T01:40:32;6.03;;;3.83;;
16766;SDS011;8501;49.926;8.404;2023-01-28T01:42:58;6.37;;;3.90;;
16766;SDS011;8501;49.926;8.404;2023-01-28T01:45:23;5.53;;;3.90;;
16766;SDS011;8501;49.926;8.404;2023-01-28T01:48:04;7.80;;;4.47;;
16766;SDS011;8501;49.926;8.404;2023-01-28T01:50:59;7.30;;;4.40;;
16766;SDS011;8501;49.926;8.404;2023-01-28T01:53:28;8.00;;;3.70;;
16766;SDS011;8501;49.926;8.404;2023-01-28T01:55:56;5.57;;;4.00;;
16766;SDS011;8501;49.926;8.404;2023-01-28T01:58:27;6.30;;;3.87;;
16766;SDS011;8501;49.926;8.404;2023-01-28T02:00:55;5.07;;;3.53;;
16766;SDS011;8501;49.926;8.404;2023-01-28T02:03:25;5.20;;;3.67;;
16766;SDS011;8501;49.926;8.404;2023-01-28T02:05:59;6.27;;;3.57;;
16766;SDS011;8501;49.926;8.404;2023-01-28T02:08:25;6.40;;;3.67;;
16766;SDS011;8501;49.926;8.404;2023-01-28T02:10:54;5.73;;;3.70;;
16766;SDS011;8501;49.926;8.404;2023-01-28T02:13:27;5.33;;;3.87;;
16766;SDS011;8501;49.926;8.404;2023-01-28T02:15:59;6.40;;;3.83;;
16766;SDS011;8501;49.926;8.404;2023-01-28T02:18:27;5.50;;;3.50;;
16766;SDS011;8501;49.926;8.404;2023-01-28T02:29:32;4.97;;;3.43;;
16766;SDS011;8501;49.926;8.404;2023-01-28T02:32:09;6.33;;;3.90;;
16766;SDS011;8501;49.926;8.404;2023-01-28T02:34:44;5.83;;;3.97;;
16766;SDS011;8501;49.926;8.404;2023-01-28T02:37:39;4.87;;;3.53;;
16766;SDS011;8501;49.926;8.404;2023-01-28T02:40:13;6.27;;;3.80;;
16766;SDS011;8501;49.926;8.404;2023-01-28T02:43:27;7.23;;;4.00;;
16766;SDS011;8501;49.926;8.404;2023-01-28T02:45:58;5.90;;;4.03;;
16766;SDS011;8501;49.926;8.404;2023-01-28T02:48:44;7.20;;;3.83;;
16766;SDS011;8501;49.926;8.404;2023-01-28T02:51:17;7.30;;;3.90;;
16766;SDS011;8501;49.926;8.404;2023-01-28T02:54:11;6.20;;;3.90;;
16766;SDS011;8501;49.926;8.404;2023-01-28T02:56:47;6.57;;;4.10;;
16766;SDS011;8501;49.926;8.404;2023-01-28T02:59:48;6.73;;;4.10;;
16766;SDS011;8501;49.926;8.404;2023-01-28T03:05:05;6.57;;;4.13;;
16766;SDS011;8501;49.926;8.404;2023-01-28T03:07:38;6.17;;;3.97;;
16766;SDS011;8501;49.926;8.404;2023-01-28T03:10:06;5.73;;;3.97;;
16766;SDS011;8501;49.926;8.404;2023-01-28T03:12:36;6.67;;;4.10;;
16766;SDS011;8501;49.926;8.404;2023-01-28T03:15:28;7.13;;;4.30;;
16766;SDS011;8501;49.926;8.404;2023-01-28T03:18:29;6.77;;;4.07;;
16766;SDS011;8501;49.926;8.404;2023-01-28T03:21:25;5.17;;;3.80;;
16766;SDS011;8501;49.926;8.404;2023-01-28T03:24:25;7.10;;;4.00;;
16766;SDS011;8501;49.926;8.404;2023-01-28T03:27:32;5.20;;;3.70;;
16766;SDS011;8501;49.926;8.404;2023-01-28T03:30:26;7.77;;;4.50;;
16766;SDS011;8501;49.926;8.404;2023-01-28T03:33:15;5.47;;;3.60;;
16766;SDS011;8501;49.926;8.404;2023-01-28T03:36:00;6.83;;;4.47;;
16766;SDS011;8501;49.926;8.404;2023-01-28T03:38:44;7.23;;;4.33;;
16766;SDS011;8501;49.926;8.404;2023-01-28T03:41:18;6.60;;;4.13;;
16766;SDS011;8501;49.926;8.404;2023-01-28T03:43:48;7.13;;;4.30;;
16766;SDS011;8501;49.926;8.404;2023-01-28T03:46:15;7.50;;;4.03;;
16766;SDS011;8501;49.926;8.404;2023-01-28T03:48:42;9.80;;;4.53;;
16766;SDS011;8501;49.926;8.404;2023-01-28T03:51:07;8.77;;;3.80;;
16766;SDS011;8501;49.926;8.404;2023-01-28T03:53:33;8.03;;;4.40;;
16766;SDS011;8501;49.926;8.404;2023-01-28T03:55:58;6.53;;;4.20;;
16766;SDS011;8501;49.926;8.404;2023-01-28T03:58:24;6.23;;;4.30;;
16766;SDS011;8501;49.926;8.404;2023-01-28T04:00:51;6.63;;;3.90;;
16766;SDS011;8501;49.926;8.404;2023-01-28T04:03:18;10.00;;;4.23;;
16766;SDS011;8501;49.926;8.404;2023-01-28T04:05:46;6.93;;;4.10;;
16766;SDS011;8501;49.926;8.404;2023-01-28T04:08:25;5.17;;;3.90;;
16766;SDS011;8501;49.926;8.404;2023-01-28T04:10:51;6.27;;;4.00;;
16766;SDS011;8501;49.926;8.404;2023-01-28T04:13:16;6.30;;;3.80;;
16766;SDS011;8501;49.926;8.404;2023-01-28T04:15:42;5.63;;;4.00;;
16766;SDS011;8501;49.926;8.404;2023-01-28T04:18:09;5.73;;;3.77;;
16766;SDS011;8501;49.926;8.404;2023-01-28T04:20:35;7.10;;;3.83;;
16766;SDS011;8501;49.926;8.404;2023-01-28T04:23:01;6.50;;;4.23;;
16766;SDS011;8501;49.926;8.404;2023-01-28T04:25:28;8.53;;;4.43;;
16766;SDS011;8501;49.926;8.404;2023-01-28T04:27:53;5.67;;;3.50;;
16766;SDS011;8501;49.926;8.404;2023-01-28T04:30:19;6.33;;;4.07;;
16766;SDS011;8501;49.926;8.404;2023-01-28T04:32:47;5.97;;;3.90;;
16766;SDS011;8501;49.926;8.404;2023-01-28T04:35:17;6.63;;;4.10;;
16766;SDS011;8501;49.926;8.404;2023-01-28T04:37:43;7.37;;;4.37;;
16766;SDS011;8501;49.926;8.404;2023-01-28T04:40:09;6.23;;;4.43;;
16766;SDS011;8501;49.926;8.404;2023-01-28T04:42:35;8.07;;;4.97;;
16766;SDS011;8501;49.926;8.404;2023-01-28T04:45:01;8.63;;;5.33;;
16766;SDS011;8501;49.926;8.404;2023-01-28T04:47:27;6.57;;;4.50;;
16766;SDS011;8501;49.926;8.404;2023-01-28T04:49:52;8.00;;;4.83;;
16766;SDS011;8501;49.926;8.404;2023-01-28T04:52:18;8.20;;;4.57;;
16766;SDS011;8501;49.926;8.404;2023-01-28T04:54:43;7.73;;;4.47;;
16766;SDS011;8501;49.926;8.404;2023-01-28T04:57:09;8.90;;;4.60;;
16766;SDS011;8501;49.926;8.404;2023-01-28T04:59:34;7.93;;;4.67;;
16766;SDS011;8501;49.926;8.404;2023-01-28T05:02:01;7.27;;;4.80;;
16766;SDS011;8501;49.926;8.404;2023-01-28T05:04:26;7.93;;;5.30;;
16766;SDS011;8501;49.926;8.404;2023-01-28T05:06:52;7.57;;;5.03;;
16766;SDS011;8501;49.926;8.404;2023-01-28T05:09:17;10.07;;;5.00;;
16766;SDS011;8501;49.926;8.404;2023-01-28T05:11:43;9.90;;;5.07;;
16766;SDS011;8501;49.926;8.404;2023-01-28T05:14:09;6.10;;;4.53;;
16766;SDS011;8501;49.926;8.404;2023-01-28T05:16:34;7.50;;;4.53;;
16766;SDS011;8501;49.926;8.404;2023-01-28T05:19:00;7.50;;;4.40;;
16766;SDS011;8501;49.926;8.404;2023-01-28T05:21:26;6.83;;;4.33;;
16766;SDS011;8501;49.926;8.404;2023-01-28T05:23:52;7.30;;;4.53;;
16766;SDS011;8501;49.926;8.404;2023-01-28T05:26:17;7.27;;;4.30;;
16766;SDS011;8501;49.926;8.404;2023-01-28T05:28:43;8.13;;;4.67;;
16766;SDS011;8501;49.926;8.404;2023-01-28T05:31:08;6.87;;;3.93;;
16766;SDS011;8501;49.926;8.404;2023-01-28T05:33:34;6.83;;;4.40;;
16766;SDS011;8501;49.926;8.404;2023-01-28T05:36:00;7.17;;;5.10;;
16766;SDS011;8501;49.926;8.404;2023-01-28T05:38:26;7.03;;;4.77;;
16766;SDS011;8501;49.926;8.404;2023-01-28T05:40:52;9.20;;;6.10;;
16766;SDS011;8501;49.926;8.404;2023-01-28T05:43:17;7.87;;;5.53;;
16766;SDS011;8501;49.926;8.404;2023-01-28T05:45:43;5.97;;;4.50;;
16766;SDS011;8501;49.926;8.404;2023-01-28T05:48:08;7.77;;;5.00;;
16766;SDS011;8501;49.926;8.404;2023-01-28T05:50:34;7.00;;;4.13;;
16766;SDS011;8501;49.926;8.404;2023-01-28T05:52:59;6.47;;;4.50;;
16766;SDS011;8501;49.926;8.404;2023-01-28T05:55:25;5.43;;;4.20;;
16766;SDS011;8501;49.926;8.404;2023-01-28T05:57:50;6.47;;;4.90;;
16766;SDS011;8501;49.926;8.404;2023-01-28T06:00:16;6.37;;;4.20;;
16766;SDS011;8501;49.926;8.404;2023-01-28T06:02:42;7.03;;;4.27;;
16766;SDS011;8501;49.926;8.404;2023-01-28T06:05:08;6.50;;;3.77;;
16766;SDS011;8501;49.926;8.404;2023-01-28T06:07:33;6.63;;;4.07;;
16766;SDS011;8501;49.926;8.404;2023-01-28T06:09:59;5.50;;;3.80;;
16766;SDS011;8501;49.926;8.404;2023-01-28T06:12:25;7.27;;;4.03;;
16766;SDS011;8501;49.926;8.404;2023-01-28T06:14:51;6.43;;;3.90;;
16766;SDS011;8501;49.926;8.404;2023-01-28T06:17:16;6.10;;;3.87;;
16766;SDS011;8501;49.926;8.404;2023-01-28T06:19:42;6.60;;;4.30;;
16766;SDS011;8501;49.926;8.404;2023-01-28T06:22:08;5.40;;;3.73;;
16766;SDS011;8501;49.926;8.404;2023-01-28T06:24:33;5.73;;;3.73;;
16766;SDS011;8501;49.926;8.404;2023-01-28T06:26:59;6.07;;;4.00;;
16766;SDS011;8501;49.926;8.404;2023-01-28T06:29:24;7.27;;;4.13;;
16766;SDS011;8501;49.926;8.404;2023-01-28T06:31:50;5.80;;;3.73;;
16766;SDS011;8501;49.926;8.404;2023-01-28T06:34:16;4.40;;;3.77;;
16766;SDS011;8501;49.926;8.404;2023-01-28T06:36:41;6.93;;;4.47;;
16766;SDS011;8501;49.926;8.404;2023-01-28T06:39:07;8.20;;;4.60;;
16766;SDS011;8501;49.926;8.404;2023-01-28T06:41:32;6.70;;;4.33;;
16766;SDS011;8501;49.926;8.404;2023-01-28T06:43:58;7.00;;;3.90;;
16766;SDS011;8501;49.926;8.404;2023-01-28T06:46:23;5.80;;;4.53;;
16766;SDS011;8501;49.926;8.404;2023-01-28T06:48:49;8.33;;;4.70;;
16766;SDS011;8501;49.926;8.404;2023-01-28T06:51:14;7.03;;;4.53;;
16766;SDS011;8501;49.926;8.404;2023-01-28T06:53:40;7.50;;;4.23;;
16766;SDS011;8501;49.926;8.404;2023-01-28T06:56:06;7.07;;;4.67;;
16766;SDS011;8501;49.926;8.404;2023-01-28T06:58:32;6.83;;;4.23;;
16766;SDS011;8501;49.926;8.404;2023-01-28T07:00:58;7.17;;;4.20;;
16766;SDS011;8501;49.926;8.404;2023-01-28T07:03:23;8.33;;;5.00;;
16766;SDS011;8501;49.926;8.404;2023-01-28T07:05:49;9.90;;;5.00;;
16766;SDS011;8501;49.926;8.404;2023-01-28T07:08:14;8.70;;;5.40;;
16766;SDS011;8501;49.926;8.404;2023-01-28T07:10:40;8.30;;;5.03;;
16766;SDS011;8501;49.926;8.404;2023-01-28T07:13:06;6.47;;;4.87;;
16766;SDS011;8501;49.926;8.404;2023-01-28T07:15:31;8.47;;;5.03;;
16766;SDS011;8501;49.926;8.404;2023-01-28T07:17:57;8.70;;;5.40;;
16766;SDS011;8501;49.926;8.404;2023-01-28T07:20:22;14.67;;;7.20;;
16766;SDS011;8501;49.926;8.404;2023-01-28T07:22:48;14.10;;;6.33;;
16766;SDS011;8501;49.926;8.404;2023-01-28T07:25:14;22.87;;;10.27;;
16766;SDS011;8501;49.926;8.404;2023-01-28T07:27:44;13.00;;;7.20;;
16766;SDS011;8501;49.926;8.404;2023-01-28T07:30:11;9.93;;;6.13;;
16766;SDS011;8501;49.926;8.404;2023-01-28T07:32:37;7.30;;;4.77;;
16766;SDS011;8501;49.926;8.404;2023-01-28T07:35:03;8.57;;;5.13;;
16766;SDS011;8501;49.926;8.404;2023-01-28T07:37:29;7.13;;;5.03;;
16766;SDS011;8501;49.926;8.404;2023-01-28T07:39:54;7.07;;;4.80;;
16766;SDS011;8501;49.926;8.404;2023-01-28T07:42:20;5.83;;;4.13;;
16766;SDS011;8501;49.926;8.404;2023-01-28T07:44:45;6.47;;;4.40;;
16766;SDS011;8501;49.926;8.404;2023-01-28T07:47:11;7.27;;;4.20;;
16766;SDS011;8501;49.926;8.404;2023-01-28T07:49:36;6.80;;;4.87;;
16766;SDS011;8501;49.926;8.404;2023-01-28T07:52:04;8.17;;;5.17;;
16766;SDS011;8501;49.926;8.404;2023-01-28T07:54:30;8.73;;;5.53;;
16766;SDS011;8501;49.926;8.404;2023-01-28T07:56:55;7.60;;;5.13;;
16766;SDS011;8501;49.926;8.404;2023-01-28T07:59:21;8.27;;;5.33;;
16766;SDS011;8501;49.926;8.404;2023-01-28T08:01:47;8.90;;;5.20;;
16766;SDS011;8501;49.926;8.404;2023-01-28T08:04:12;8.70;;;5.10;;
16766;SDS011;8501;49.926;8.404;2023-01-28T08:06:38;8.07;;;4.63;;
16766;SDS011;8501;49.926;8.404;2023-01-28T08:09:04;6.83;;;4.20;;
16766;SDS011;8501;49.926;8.404;2023-01-28T08:11:32;7.93;;;4.43;;
16766;SDS011;8501;49.926;8.404;2023-01-28T08:14:02;7.63;;;4.40;;
16766;SDS011;8501;49.926;8.404;2023-01-28T08:16:27;7.20;;;4.20;;
16766;SDS011;8501;49.926;8.404;2023-01-28T08:18:53;6.37;;;4.30;;
16766;SDS011;8501;49.926;8.404;2023-01-28T08:21:18;6.03;;;4.10;;
16766;SDS011;8501;49.926;8.404;2023-01-28T08:23:44;7.43;;;4.50;;
16766;SDS011;8501;49.926;8.404;2023-01-28T08:26:10;7.47;;;4.70;;
16766;SDS011;8501;49.926;8.404;2023-01-28T08:28:35;7.07;;;4.03;;
16766;SDS011;8501;49.926;8.404;2023-01-28T08:31:01;6.73;;;4.70;;
16766;SDS011;8501;49.926;8.404;2023-01-28T08:33:27;6.47;;;3.97;;
16766;SDS011;8501;49.926;8.404;2023-01-28T08:35:52;6.67;;;4.50;;
16766;SDS011;8501;49.926;8.404;2023-01-28T08:38:18;7.23;;;4.67;;
16766;SDS011;8501;49.926;8.404;2023-01-28T08:40:44;6.33;;;4.10;;
16766;SDS011;8501;49.926;8.404;2023-01-28T08:43:10;6.97;;;4.33;;
16766;SDS011;8501;49.926;8.404;2023-01-28T08:45:36;7.00;;;4.20;;
16766;SDS011;8501;49.926;8.404;2023-01-28T08:48:04;10.67;;;4.77;;
16766;SDS011;8501;49.926;8.404;2023-01-28T08:50:32;5.97;;;4.27;;
16766;SDS011;8501;49.926;8.404;2023-01-28T08:53:00;8.40;;;4.50;;
16766;SDS011;8501;49.926;8.404;2023-01-28T08:55:27;8.30;;;4.57;;
16766;SDS011;8501;49.926;8.404;2023-01-28T08:57:53;7.37;;;4.60;;
16766;SDS011;8501;49.926;8.404;2023-01-28T09:00:19;9.07;;;4.60;;
16766;SDS011;8501;49.926;8.404;2023-01-28T09:02:46;10.43;;;4.90;;
16766;SDS011;8501;49.926;8.404;2023-01-28T09:05:14;6.07;;;4.10;;
16766;SDS011;8501;49.926;8.404;2023-01-28T09:07:40;5.73;;;3.63;;
16766;SDS011;8501;49.926;8.404;2023-01-28T09:10:08;8.77;;;4.10;;
16766;SDS011;8501;49.926;8.404;2023-01-28T09:12:34;6.60;;;4.70;;
16766;SDS011;8501;49.926;8.404;2023-01-28T09:15:01;8.13;;;5.30;;
16766;SDS011;8501;49.926;8.404;2023-01-28T09:17:26;13.10;;;7.40;;
16766;SDS011;8501;49.926;8.404;2023-01-28T09:19:52;17.50;;;9.50;;
16766;SDS011;8501;49.926;8.404;2023-01-28T09:22:20;12.87;;;7.53;;
16766;SDS011;8501;49.926;8.404;2023-01-28T09:24:55;15.07;;;6.23;;
16766;SDS011;8501;49.926;8.404;2023-01-28T09:27:20;14.37;;;7.10;;
16766;SDS011;8501;49.926;8.404;2023-01-28T09:29:46;11.10;;;7.17;;
16766;SDS011;8501;49.926;8.404;2023-01-28T09:32:11;15.20;;;8.93;;
16766;SDS011;8501;49.926;8.404;2023-01-28T09:34:37;11.87;;;7.07;;
16766;SDS011;8501;49.926;8.404;2023-01-28T09:37:03;15.20;;;8.80;;
16766;SDS011;8501;49.926;8.404;2023-01-28T09:39:28;15.57;;;9.37;;
16766;SDS011;8501;49.926;8.404;2023-01-28T09:44:50;16.23;;;9.20;;
16766;SDS011;8501;49.926;8.404;2023-01-28T09:47:34;14.53;;;8.70;;
16766;SDS011;8501;49.926;8.404;2023-01-28T09:50:10;14.90;;;8.97;;
16766;SDS011;8501;49.926;8.404;2023-01-28T09:52:39;21.10;;;10.47;;
16766;SDS011;8501;49.926;8.404;2023-01-28T09:55:12;17.63;;;8.30;;
16766;SDS011;8501;49.926;8.404;2023-01-28T09:57:49;18.43;;;9.67;;
16766;SDS011;8501;49.926;8.404;2023-01-28T10:00:18;19.93;;;11.53;;
16766;SDS011;8501;49.926;8.404;2023-01-28T10:03:07;22.13;;;10.00;;
16766;SDS011;8501;49.926;8.404;2023-01-28T10:11:43;7.57;;;3.77;;
16766;SDS011;8501;49.926;8.404;2023-01-28T10:20:02;6.63;;;3.73;;
16766;SDS011;8501;49.926;8.404;2023-01-28T10:25:21;10.57;;;4.17;;
16766;SDS011;8501;49.926;8.404;2023-01-28T10:27:49;6.40;;;4.30;;
16766;SDS011;8501;49.926;8.404;2023-01-28T10:30:19;8.77;;;4.70;;
16766;SDS011;8501;49.926;8.404;2023-01-28T10:32:52;12.77;;;6.57;;
16766;SDS011;8501;49.926;8.404;2023-01-28T10:35:25;11.17;;;5.60;;
16766;SDS011;8501;49.926;8.404;2023-01-28T10:37:52;9.87;;;4.50;;
16766;SDS011;8501;49.926;8.404;2023-01-28T10:40:25;7.00;;;4.50;;
16766;SDS011;8501;49.926;8.404;2023-01-28T10:42:51;9.67;;;4.30;;
16766;SDS011;8501;49.926;8.404;2023-01-28T10:45:27;8.40;;;4.37;;
16766;SDS011;8501;49.926;8.404;2023-01-28T10:50:28;8.73;;;4.70;;
16766;SDS011;8501;49.926;8.404;2023-01-28T10:52:55;10.20;;;5.30;;
16766;SDS011;8501;49.926;8.404;2023-01-28T10:55:27;8.80;;;5.10;;
16766;SDS011;8501;49.926;8.404;2023-01-28T10:57:56;7.57;;;4.10;;
16766;SDS011;8501;49.926;8.404;2023-01-28T11:00:23;10.40;;;6.43;;
16766;SDS011;8501;49.926;8.404;2023-01-28T11:02:55;8.53;;;4.97;;
16766;SDS011;8501;49.926;8.404;2023-01-28T11:05:23;8.13;;;4.60;;
16766;SDS011;8501;49.926;8.404;2023-01-28T11:08:02;7.17;;;3.80;;
16766;SDS011;8501;49.926;8.404;2023-01-28T11:10:36;9.23;;;4.30;;
16766;SDS011;8501;49.926;8.404;2023-01-28T11:13:03;8.07;;;4.43;;
16766;SDS011;8501;49.926;8.404;2023-01-28T11:15:31;10.00;;;4.50;;
16766;SDS011;8501;49.926;8.404;2023-01-28T11:17:59;7.17;;;4.20;;
16766;SDS011;8501;49.926;8.404;2023-01-28T11:20:35;8.73;;;4.43;;
16766;SDS011;8501;49.926;8.404;2023-01-28T11:23:04;8.47;;;4.23;;
16766;SDS011;8501;49.926;8.404;2023-01-28T11:25:34;8.30;;;4.03;;
16766;SDS011;8501;49.926;8.404;2023-01-28T11:28:02;9.70;;;4.30;;
16766;SDS011;8501;49.926;8.404;2023-01-28T11:30:32;11.50;;;4.23;;
16766;SDS011;8501;49.926;8.404;2023-01-28T11:33:20;6.60;;;3.87;;
16766;SDS011;8501;49.926;8.404;2023-01-28T11:36:05;10.23;;;4.03;;
16766;SDS011;8501;49.926;8.404;2023-01-28T11:38:54;7.03;;;3.90;;
16766;SDS011;8501;49.926;8.404;2023-01-28T11:41:48;7.67;;;4.07;;
16766;SDS011;8501;49.926;8.404;2023-01-28T11:44:24;9.90;;;3.60;;
16766;SDS011;8501;49.926;8.404;2023-01-28T12:01:08;13.67;;;4.83;;
16766;SDS011;8501;49.926;8.404;2023-01-28T12:03:48;8.73;;;4.67;;
16766;SDS011;8501;49.926;8.404;2023-01-28T12:11:35;8.07;;;5.10;;
16766;SDS011;8501;49.926;8.404;2023-01-28T12:17:21;8.37;;;4.53;;
16766;SDS011;8501;49.926;8.404;2023-01-28T12:22:39;8.17;;;4.57;;
16766;SDS011;8501;49.926;8.404;2023-01-28T12:28:01;8.60;;;4.17;;
16766;SDS011;8501;49.926;8.404;2023-01-28T12:30:37;7.57;;;4.30;;
16766;SDS011;8501;49.926;8.404;2023-01-28T12:35:50;7.77;;;3.67;;
16766;SDS011;8501;49.926;8.404;2023-01-28T12:41:15;7.77;;;4.53;;
16766;SDS011;8501;49.926;8.404;2023-01-28T12:49:21;7.53;;;4.57;;
16766;SDS011;8501;49.926;8.404;2023-01-28T12:54:27;8.17;;;3.83;;
16766;SDS011;8501;49.926;8.404;2023-01-28T12:56:59;5.00;;;3.50;;
16766;SDS011;8501;49.926;8.404;2023-01-28T13:02:04;8.93;;;4.10;;
16766;SDS011;8501;49.926;8.404;2023-01-28T13:07:20;5.03;;;3.37;;
16766;SDS011;8501;49.926;8.404;2023-01-28T13:12:54;5.73;;;3.80;;
16766;SDS011;8501;49.926;8.404;2023-01-28T13:15:21;5.60;;;3.93;;
16766;SDS011;8501;49.926;8.404;2023-01-28T13:17:57;5.07;;;3.70;;
16766;SDS011;8501;49.926;8.404;2023-01-28T13:20:35;5.90;;;3.20;;
16766;SDS011;8501;49.926;8.404;2023-01-28T13:23:03;4.83;;;3.23;;
16766;SDS011;8501;49.926;8.404;2023-01-28T13:25:31;4.63;;;3.60;;
16766;SDS011;8501;49.926;8.404;2023-01-28T13:27:59;4.17;;;3.20;;
16766;SDS011;8501;49.926;8.404;2023-01-28T13:30:34;5.80;;;3.73;;
16766;SDS011;8501;49.926;8.404;2023-01-28T13:33:27;5.20;;;3.80;;
16766;SDS011;8501;49.926;8.404;2023-01-28T13:35:54;8.70;;;4.63;;
16766;SDS011;8501;49.926;8.404;2023-01-28T13:38:20;7.83;;;4.67;;
16766;SDS011;8501;49.926;8.404;2023-01-28T13:40:54;3.43;;;3.13;;
16766;SDS011;8501;49.926;8.404;2023-01-28T13:43:34;7.73;;;3.93;;
16766;SDS011;8501;49.926;8.404;2023-01-28T13:46:03;5.47;;;3.20;;
16766;SDS011;8501;49.926;8.404;2023-01-28T13:48:33;6.23;;;3.53;;
16766;SDS011;8501;49.926;8.404;2023-01-28T13:51:17;5.10;;;3.30;;
16766;SDS011;8501;49.926;8.404;2023-01-28T13:53:52;5.00;;;3.03;;
16766;SDS011;8501;49.926;8.404;2023-01-28T13:56:27;5.23;;;3.33;;
16766;SDS011;8501;49.926;8.404;2023-01-28T13:59:20;6.67;;;3.47;;
16766;SDS011;8501;49.926;8.404;2023-01-28T14:05:10;4.13;;;3.17;;
16766;SDS011;8501;49.926;8.404;2023-01-28T14:07:48;6.20;;;3.37;;
16766;SDS011;8501;49.926;8.404;2023-01-28T14:13:28;9.87;;;5.47;;
16766;SDS011;8501;49.926;8.404;2023-01-28T14:18:40;7.17;;;3.10;;
16766;SDS011;8501;49.926;8.404;2023-01-28T14:21:29;5.07;;;2.80;;
16766;SDS011;8501;49.926;8.404;2023-01-28T14:23:56;7.57;;;3.20;;
16766;SDS011;8501;49.926;8.404;2023-01-28T14:31:35;7.43;;;3.80;;
16766;SDS011;8501;49.926;8.404;2023-01-28T14:34:09;6.53;;;3.23;;
16766;SDS011;8501;49.926;8.404;2023-01-28T14:36:39;7.17;;;3.73;;
16766;SDS011;8501;49.926;8.404;2023-01-28T14:41:44;5.73;;;3.80;;
16766;SDS011;8501;49.926;8.404;2023-01-28T14:44:18;18.37;;;6.63;;
16766;SDS011;8501;49.926;8.404;2023-01-28T14:46:59;12.07;;;5.20;;
16766;SDS011;8501;49.926;8.404;2023-01-28T14:49:33;12.47;;;4.80;;
16766;SDS011;8501;49.926;8.404;2023-01-28T15:00:16;7.63;;;4.77;;
16766;SDS011;8501;49.926;8.404;2023-01-28T15:02:50;9.37;;;5.37;;
16766;SDS011;8501;49.926;8.404;2023-01-28T15:05:18;10.83;;;5.97;;
16766;SDS011;8501;49.926;8.404;2023-01-28T15:07:54;6.60;;;4.40;;
16766;SDS011;8501;49.926;8.404;2023-01-28T15:10:23;6.83;;;3.70;;
16766;SDS011;8501;49.926;8.404;2023-01-28T15:18:02;5.90;;;3.27;;
16766;SDS011;8501;49.926;8.404;2023-01-28T15:20:28;5.23;;;3.90;;
16766;SDS011;8501;49.926;8.404;2023-01-28T15:22:54;3.50;;;2.83;;
16766;SDS011;8501;49.926;8.404;2023-01-28T15:25:21;8.30;;;3.50;;
16766;SDS011;8501;49.926;8.404;2023-01-28T15:27:48;5.67;;;5.03;;
16766;SDS011;8501;49.926;8.404;2023-01-28T15:30:17;7.53;;;5.13;;
16766;SDS011;8501;49.926;8.404;2023-01-28T15:32:43;6.00;;;4.00;;
16766;SDS011;8501;49.926;8.404;2023-01-28T15:35:10;5.67;;;4.03;;
16766;SDS011;8501;49.926;8.404;2023-01-28T15:37:38;8.13;;;4.80;;
16766;SDS011;8501;49.926;8.404;2023-01-28T15:40:04;7.83;;;5.37;;
16766;SDS011;8501;49.926;8.404;2023-01-28T15:42:30;7.37;;;4.50;;
16766;SDS011;8501;49.926;8.404;2023-01-28T15:44:57;14.50;;;6.43;;
16766;SDS011;8501;49.926;8.404;2023-01-28T15:50:00;8.70;;;5.40;;
16766;SDS011;8501;49.926;8.404;2023-01-28T15:52:34;9.57;;;5.70;;
16766;SDS011;8501;49.926;8.404;2023-01-28T15:55:05;11.23;;;5.13;;
16766;SDS011;8501;49.926;8.404;2023-01-28T15:57:32;9.93;;;4.83;;
16766;SDS011;8501;49.926;8.404;2023-01-28T16:00:18;6.77;;;4.20;;
16766;SDS011;8501;49.926;8.404;2023-01-28T16:02:45;9.83;;;4.30;;
16766;SDS011;8501;49.926;8.404;2023-01-28T16:07:49;6.43;;;3.73;;
16766;SDS011;8501;49.926;8.404;2023-01-28T16:10:19;5.97;;;3.80;;
16766;SDS011;8501;49.926;8.404;2023-01-28T16:12:56;6.57;;;4.00;;
16766;SDS011;8501;49.926;8.404;2023-01-28T16:15:28;11.83;;;6.80;;
16766;SDS011;8501;49.926;8.404;2023-01-28T16:17:54;14.73;;;9.50;;
16766;SDS011;8501;49.926;8.404;2023-01-28T16:20:21;13.03;;;8.33;;
16766;SDS011;8501;49.926;8.404;2023-01-28T16:22:49;11.30;;;8.17;;
16766;SDS011;8501;49.926;8.404;2023-01-28T16:25:34;10.83;;;7.63;;
16766;SDS011;8501;49.926;8.404;2023-01-28T16:28:12;5.87;;;4.30;;
16766;SDS011;8501;49.926;8.404;2023-01-28T16:30:43;7.00;;;4.20;;
16766;SDS011;8501;49.926;8.404;2023-01-28T16:33:18;6.77;;;4.33;;
16766;SDS011;8501;49.926;8.404;2023-01-28T16:35:45;6.23;;;4.20;;
16766;SDS011;8501;49.926;8.404;2023-01-28T16:38:11;7.67;;;4.40;;
16766;SDS011;8501;49.926;8.404;2023-01-28T16:40:41;10.70;;;6.73;;
16766;SDS011;8501;49.926;8.404;2023-01-28T16:43:11;7.23;;;4.60;;
16766;SDS011;8501;49.926;8.404;2023-01-28T16:45:37;7.83;;;4.73;;
16766;SDS011;8501;49.926;8.404;2023-01-28T16:48:03;8.33;;;4.93;;
16766;SDS011;8501;49.926;8.404;2023-01-28T16:50:30;8.10;;;4.37;;
16766;SDS011;8501;49.926;8.404;2023-01-28T16:52:56;5.73;;;4.40;;
16766;SDS011;8501;49.926;8.404;2023-01-28T16:55:22;6.97;;;3.73;;
16766;SDS011;8501;49.926;8.404;2023-01-28T16:57:49;6.80;;;4.40;;
16766;SDS011;8501;49.926;8.404;2023-01-28T17:00:20;5.57;;;3.93;;
16766;SDS011;8501;49.926;8.404;2023-01-28T17:02:47;17.27;;;8.50;;
16766;SDS011;8501;49.926;8.404;2023-01-28T17:05:13;24.37;;;11.23;;
16766;SDS011;8501;49.926;8.404;2023-01-28T17:07:40;23.63;;;11.17;;
16766;SDS011;8501;49.926;8.404;2023-01-28T17:10:06;17.57;;;9.70;;
16766;SDS011;8501;49.926;8.404;2023-01-28T17:12:32;15.40;;;8.57;;